Time;durP1;ratioP1;P1;durP2;ratioP2;P2;SDS_P1;SDS_P2;PMS_P1;PMS_P2;Temp;Humidity;BMP_temperature;BMP_pressure;BME280_temperature;BME280_humidity;BME280_pressure;Samples;Min_cycle;Max_cycle;Signal;HPM_P1;HPM_P2
2021/12/28 00:00:11;;;;;;;10.10;8.60;;;4.30;99.90;;;;;;5018580;28;20135;-69
2021/12/28 00:02:38;;;;;;;13.50;8.45;;;4.40;99.90;;;;;;5020342;28;20408;-69
2021/12/28 00:05:04;;;;;;;9.52;8.52;;;4.40;99.90;;;;;;5018224;28;20140;-70
2021/12/28 00:07:30;;;;;;;11.77;8.40;;;4.40;99.90;;;;;;5017923;28;20188;-69
2021/12/28 00:09:55;;;;;;;11.38;8.73;;;4.40;99.90;;;;;;5019724;28;20564;-70
2021/12/28 00:12:22;;;;;;;11.32;9.30;;;4.40;99.90;;;;;;5019975;28;20064;-70
2021/12/28 00:15:05;;;;;;;12.82;8.20;;;4.40;99.90;;;;;;5018215;28;20503;-70
2021/12/28 00:20:15;;;;;;;9.85;8.75;;;5.30;99.90;;;;;;5017304;28;19925;-71
2021/12/28 00:22:41;;;;;;;11.05;9.30;;;4.40;99.90;;;;;;5019713;28;20473;-70
2021/12/28 00:25:07;;;;;;;11.05;8.43;;;4.50;99.90;;;;;;5017885;28;20049;-71
2021/12/28 00:27:33;;;;;;;14.18;8.88;;;4.50;99.90;;;;;;5017639;28;20120;-70
2021/12/28 00:29:59;;;;;;;13.77;10.18;;;4.50;99.90;;;;;;5020136;28;20191;-71
2021/12/28 00:32:24;;;;;;;12.93;9.55;;;4.60;99.90;;;;;;5020058;28;20058;-71
2021/12/28 00:34:50;;;;;;;12.25;10.25;;;4.60;99.90;;;;;;5019854;28;20056;-71
2021/12/28 00:37:16;;;;;;;14.88;9.95;;;4.60;99.90;;;;;;5019709;28;20053;-71
2021/12/28 00:39:41;;;;;;;14.65;10.93;;;4.60;99.90;;;;;;5019265;28;20961;-72
2021/12/28 00:42:08;;;;;;;16.25;11.73;;;4.60;99.90;;;;;;5021008;28;20568;-72
2021/12/28 00:44:34;;;;;;;16.15;11.93;;;4.70;99.90;;;;;;5021259;28;20416;-72
2021/12/28 00:47:00;;;;;;;12.13;9.43;;;4.70;99.90;;;;;;5021453;28;20049;-72
2021/12/28 00:49:26;;;;;;;15.25;11.07;;;4.70;99.90;;;;;;5038586;28;20122;-72
2021/12/28 00:51:52;;;;;;;15.02;11.35;;;4.70;99.90;;;;;;5020792;28;20051;-72
2021/12/28 00:54:18;;;;;;;13.00;10.30;;;4.70;99.90;;;;;;5038750;28;20851;-72
2021/12/28 00:56:43;;;;;;;13.07;9.98;;;4.70;99.90;;;;;;5020342;28;20051;-72
2021/12/28 00:59:09;;;;;;;17.02;10.93;;;4.70;99.90;;;;;;5020948;28;20041;-72
2021/12/28 01:01:34;;;;;;;14.52;11.88;;;4.80;99.90;;;;;;5017691;28;20057;-72
2021/12/28 01:04:00;;;;;;;16.02;11.88;;;4.80;99.90;;;;;;5035465;28;20098;-73
2021/12/28 01:06:26;;;;;;;18.00;13.93;;;4.80;99.90;;;;;;5037337;28;20048;-72
2021/12/28 01:08:51;;;;;;;16.48;12.63;;;4.80;99.90;;;;;;5020161;28;20847;-72
2021/12/28 01:11:17;;;;;;;19.70;13.43;;;4.80;99.90;;;;;;5038291;28;20601;-72
2021/12/28 01:13:43;;;;;;;15.48;11.07;;;4.80;99.90;;;;;;5020997;28;20549;-72
2021/12/28 01:16:08;;;;;;;14.40;11.30;;;4.80;99.90;;;;;;5020804;28;20049;-72
2021/12/28 01:18:34;;;;;;;15.88;13.10;;;4.90;99.90;;;;;;5038184;28;20135;-73
2021/12/28 01:21:00;;;;;;;21.33;13.23;;;4.90;99.90;;;;;;5020917;28;20060;-72
2021/12/28 01:23:26;;;;;;;19.13;12.80;;;4.20;99.90;;;;;;5019669;28;20579;-72
2021/12/28 01:25:52;;;;;;;18.02;14.20;;;4.90;99.90;;;;;;5020501;28;20049;-72
2021/12/28 01:28:18;;;;;;;18.25;13.80;;;5.00;99.90;;;;;;5038238;28;20857;-72
2021/12/28 01:30:45;;;;;;;19.52;15.23;;;5.00;99.90;;;;;;5022143;28;20056;-73
2021/12/28 01:33:10;;;;;;;24.05;15.68;;;5.10;99.90;;;;;;5042950;28;20053;-72
2021/12/28 01:35:37;;;;;;;19.70;15.27;;;5.10;99.90;;;;;;5025111;28;20748;-73
2021/12/28 01:38:03;;;;;;;21.70;15.98;;;5.10;99.90;;;;;;5023661;28;20495;-73
2021/12/28 01:40:33;;;;;;;22.45;16.73;;;5.20;99.90;;;;;;5039236;28;20049;-73
2021/12/28 01:43:07;;;;;;;30.45;18.58;;;5.20;99.90;;;;;;5042921;28;20053;-73
2021/12/28 01:45:41;;;;;;;26.00;18.38;;;5.20;99.90;;;;;;5042498;28;20151;-73
2021/12/28 01:48:08;;;;;;;27.15;16.67;;;5.20;99.90;;;;;;5025093;28;20056;-73
2021/12/28 01:50:34;;;;;;;36.33;19.88;;;5.30;99.90;;;;;;5043564;28;20056;-73
2021/12/28 01:53:00;;;;;;;31.33;16.42;;;5.20;99.90;;;;;;5024608;28;20500;-74
2021/12/28 01:55:26;;;;;;;31.30;14.98;;;5.10;99.90;;;;;;5025360;28;20132;-74
2021/12/28 01:57:52;;;;;;;22.83;15.05;;;5.00;99.90;;;;;;5024738;28;20444;-74
2021/12/28 02:00:18;;;;;;;21.75;14.27;;;5.00;99.90;;;;;;5024485;28;20057;-74
2021/12/28 02:02:44;;;;;;;33.03;16.83;;;5.00;99.90;;;;;;5043014;28;20488;-74
2021/12/28 02:05:10;;;;;;;20.45;12.93;;;5.00;99.90;;;;;;5024244;28;20139;-74
2021/12/28 02:07:35;;;;;;;27.33;16.77;;;5.00;99.90;;;;;;5024122;28;20049;-74
2021/12/28 02:10:02;;;;;;;40.13;20.13;;;5.00;99.90;;;;;;5042441;28;20049;-74
2021/12/28 02:12:29;;;;;;;43.63;21.00;;;5.00;99.90;;;;;;5024610;28;20056;-75
2021/12/28 02:14:55;;;;;;;32.08;18.83;;;5.00;99.90;;;;;;5041806;28;20603;-75
2021/12/28 02:17:21;;;;;;;36.67;21.52;;;4.90;99.90;;;;;;5023886;28;20055;-76
2021/12/28 02:19:46;;;;;;;19.70;13.93;;;4.90;99.90;;;;;;5023401;28;20052;-76
2021/12/28 02:22:12;;;;;;;46.40;20.52;;;4.80;99.90;;;;;;5024110;28;20048;-76
2021/12/28 02:24:37;;;;;;;31.58;17.27;;;4.90;99.90;;;;;;5041561;28;20079;-76
2021/12/28 02:27:03;;;;;;;30.23;16.10;;;4.90;99.90;;;;;;5023264;28;20045;-76
2021/12/28 02:29:29;;;;;;;31.13;17.25;;;4.90;99.90;;;;;;5024398;28;20118;-76
2021/12/28 02:31:55;;;;;;;53.75;21.52;;;5.00;99.90;;;;;;5042183;28;20049;-76
2021/12/28 02:34:24;;;;;;;49.53;18.98;;;5.00;99.90;;;;;;5023788;28;20504;-76
2021/12/28 02:36:50;;;;;;;51.05;21.13;;;5.00;99.90;;;;;;5024090;28;20119;-76
2021/12/28 02:39:16;;;;;;;36.33;19.08;;;5.00;99.90;;;;;;5035179;28;20535;-76
2021/12/28 02:41:42;;;;;;;30.10;16.88;;;5.10;99.90;;;;;;5041278;28;20052;-77
2021/12/28 02:44:08;;;;;;;35.30;16.52;;;5.10;99.90;;;;;;5041528;28;20452;-77
2021/12/28 02:46:34;;;;;;;39.03;18.33;;;5.10;99.90;;;;;;5041174;28;20103;-77
2021/12/28 02:48:59;;;;;;;41.53;18.17;;;5.10;99.90;;;;;;5021331;28;20045;-77
2021/12/28 02:51:25;;;;;;;38.53;18.60;;;5.20;99.90;;;;;;5040401;28;20075;-77
2021/12/28 02:53:51;;;;;;;49.08;20.85;;;5.20;99.90;;;;;;5022551;28;20053;-77
2021/12/28 02:56:18;;;;;;;33.50;16.55;;;5.20;99.90;;;;;;5021041;28;20068;-77
2021/12/28 02:58:49;;;;;;;47.50;19.23;;;5.20;99.90;;;;;;5022407;28;20044;-76
2021/12/28 03:01:19;;;;;;;48.80;22.30;;;5.30;99.90;;;;;;5023108;28;20144;-77
2021/12/28 03:03:46;;;;;;;45.30;19.77;;;6.30;99.90;;;;;;5040801;28;20095;-77
2021/12/28 03:06:14;;;;;;;61.75;26.92;;;5.30;99.90;;;;;;5023216;28;20051;-77
2021/12/28 03:08:43;;;;;;;56.50;22.38;;;5.30;99.90;;;;;;5023010;28;20092;-77
2021/12/28 03:11:10;;;;;;;34.17;17.98;;;5.30;99.90;;;;;;5022446;28;20555;-77
2021/12/28 03:13:39;;;;;;;44.15;21.95;;;5.30;99.90;;;;;;5022239;28;20791;-77
2021/12/28 03:16:06;;;;;;;60.72;23.23;;;5.30;99.90;;;;;;5021421;28;20496;-77
2021/12/28 03:18:33;;;;;;;99.20;38.65;;;5.40;99.90;;;;;;5022548;28;20821;-77
2021/12/28 03:20:59;;;;;;;48.28;22.88;;;5.40;99.90;;;;;;5041001;28;20045;-77
2021/12/28 03:23:26;;;;;;;47.97;23.17;;;5.40;99.90;;;;;;5021410;28;20053;-77
2021/12/28 03:25:52;;;;;;;45.10;22.33;;;5.40;99.90;;;;;;5022558;28;20051;-77
2021/12/28 03:28:31;;;;;;;52.42;23.52;;;5.40;99.90;;;;;;5040326;28;20057;-77
2021/12/28 03:31:00;;;;;;;57.72;25.17;;;5.40;99.90;;;;;;5021518;28;20423;-77
2021/12/28 03:33:30;;;;;;;65.25;28.60;;;5.50;99.90;;;;;;5022690;28;20750;-78
2021/12/28 03:35:56;;;;;;;120.63;44.80;;;5.50;99.90;;;;;;5025877;28;20088;-77
2021/12/28 03:38:23;;;;;;;39.80;22.83;;;5.50;99.90;;;;;;5039910;28;20092;-78
2021/12/28 03:40:49;;;;;;;62.28;26.58;;;5.50;99.90;;;;;;5022342;28;20160;-78
2021/12/28 03:43:15;;;;;;;233.57;61.42;;;5.50;99.90;;;;;;5020165;28;20045;-78
2021/12/28 03:45:41;;;;;;;80.50;26.02;;;5.40;99.90;;;;;;5021125;28;20683;-78
2021/12/28 03:48:07;;;;;;;116.72;37.72;;;5.30;99.90;;;;;;5022651;28;20103;-78
2021/12/28 03:50:34;;;;;;;197.98;61.60;;;5.30;99.90;;;;;;5022945;28;20135;-78
2021/12/28 03:53:00;;;;;;;45.97;21.17;;;5.20;99.90;;;;;;5021491;28;20118;-78
2021/12/28 03:55:26;;;;;;;36.17;22.60;;;5.30;99.90;;;;;;5023437;28;20871;-79
2021/12/28 03:57:52;;;;;;;74.22;33.60;;;5.40;99.90;;;;;;5040831;28;20128;-79
2021/12/28 04:00:21;;;;;;;160.18;46.20;;;5.50;99.90;;;;;;5021895;28;20045;-78
2021/12/28 04:02:47;;;;;;;370.33;94.25;;;5.50;99.90;;;;;;5022405;28;20110;-79
2021/12/28 04:05:16;;;;;;;221.13;66.80;;;5.40;99.90;;;;;;5039636;28;20143;-79
2021/12/28 04:07:41;;;;;;;301.30;79.15;;;5.40;99.90;;;;;;5022096;28;20056;-79
2021/12/28 04:10:09;;;;;;;115.68;33.97;;;5.30;99.90;;;;;;5021992;28;20138;-80
2021/12/28 04:12:36;;;;;;;373.15;88.10;;;5.30;99.90;;;;;;5020824;28;20059;-79
2021/12/28 04:15:03;;;;;;;516.47;100.38;;;5.30;99.90;;;;;;5039450;28;20110;-79
2021/12/28 04:17:31;;;;;;;452.42;100.82;;;5.20;99.90;;;;;;5021461;28;20067;-79
2021/12/28 04:19:57;;;;;;;276.58;69.93;;;5.10;99.90;;;;;;5020889;28;20056;-79
2021/12/28 04:22:23;;;;;;;375.17;88.50;;;5.10;99.90;;;;;;5021601;28;20059;-80
2021/12/28 04:24:49;;;;;;;350.05;88.05;;;5.10;99.90;;;;;;5021168;28;20079;-80
2021/12/28 04:27:15;;;;;;;134.95;37.97;;;5.10;99.90;;;;;;5020785;28;20053;-80
2021/12/28 04:29:40;;;;;;;348.65;97.72;;;5.10;99.90;;;;;;5039303;28;20048;-80
2021/12/28 04:32:06;;;;;;;219.52;60.95;;;5.10;99.90;;;;;;5039879;28;20226;-80
2021/12/28 04:34:32;;;;;;;249.95;64.32;;;5.10;99.90;;;;;;5021348;28;20057;-80
2021/12/28 04:36:58;;;;;;;190.23;51.85;;;5.20;99.90;;;;;;5040097;28;20036;-80
2021/12/28 04:39:24;;;;;;;202.32;52.30;;;5.20;99.90;;;;;;5021410;28;20049;-80
2021/12/28 04:41:50;;;;;;;274.80;67.97;;;5.30;99.90;;;;;;5039096;28;20055;-80
2021/12/28 04:44:22;;;;;;;148.75;45.55;;;5.40;99.90;;;;;;5021064;28;20126;-80
2021/12/28 04:46:48;;;;;;;197.23;47.67;;;5.30;99.90;;;;;;5021665;28;20051;-80
2021/12/28 04:49:15;;;;;;;206.18;55.05;;;5.50;99.90;;;;;;5020755;28;20048;-80
2021/12/28 04:51:41;;;;;;;159.52;49.35;;;5.50;99.90;;;;;;5019349;28;20080;-80
2021/12/28 04:54:11;;;;;;;189.63;46.70;;;5.50;99.90;;;;;;5021662;28;20575;-81
2021/12/28 04:56:37;;;;;;;152.43;43.38;;;5.60;99.90;;;;;;5038824;28;20075;-81
2021/12/28 04:59:03;;;;;;;218.73;63.60;;;5.60;99.90;;;;;;5021690;28;20106;-81
2021/12/28 05:01:29;;;;;;;257.52;73.00;;;5.60;99.90;;;;;;5021046;28;20048;-81
2021/12/28 05:03:54;;;;;;;151.27;38.63;;;5.60;99.90;;;;;;5038923;28;20055;-81
2021/12/28 05:06:20;;;;;;;160.60;37.10;;;5.60;99.90;;;;;;5021633;28;20055;-82
2021/12/28 05:08:46;;;;;;;121.70;36.20;;;5.60;99.90;;;;;;5020676;28;20130;-82
2021/12/28 05:11:11;;;;;;;128.50;38.25;;;5.60;99.90;;;;;;5032282;28;20049;-81
2021/12/28 05:13:37;;;;;;;134.75;36.83;;;5.60;99.90;;;;;;5038698;28;20048;-82
2021/12/28 05:16:03;;;;;;;128.23;35.30;;;5.60;99.90;;;;;;5038375;28;20057;-81
2021/12/28 05:18:28;;;;;;;108.75;32.88;;;5.60;99.90;;;;;;5020948;28;20051;-82
2021/12/28 05:20:54;;;;;;;85.10;29.67;;;5.70;99.90;;;;;;5021247;28;20063;-80
2021/12/28 05:23:20;;;;;;;204.30;56.85;;;5.60;99.90;;;;;;5020468;28;20496;-81
2021/12/28 05:25:45;;;;;;;115.82;32.95;;;5.60;99.90;;;;;;5021240;28;20057;-81
2021/12/28 05:28:11;;;;;;;73.68;30.20;;;5.60;99.90;;;;;;5021900;28;20094;-81
2021/12/28 05:30:36;;;;;;;74.40;27.80;;;5.70;99.90;;;;;;5020538;28;20709;-80
2021/12/28 05:33:03;;;;;;;78.50;30.05;;;5.70;99.90;;;;;;5038077;28;20076;-81
2021/12/28 05:35:29;;;;;;;83.80;25.90;;;5.70;99.90;;;;;;5040341;28;20063;-81
2021/12/28 05:37:55;;;;;;;82.95;29.65;;;5.70;99.90;;;;;;5039982;28;20045;-81
2021/12/28 05:40:21;;;;;;;62.17;25.85;;;5.60;99.90;;;;;;5021230;28;20447;-81
2021/12/28 05:42:46;;;;;;;72.05;25.02;;;5.70;99.90;;;;;;5020262;28;20049;-81
2021/12/28 05:45:12;;;;;;;64.38;20.85;;;5.60;99.90;;;;;;5038245;28;20091;-81
2021/12/28 05:47:38;;;;;;;43.70;18.67;;;5.70;99.90;;;;;;5021797;28;20048;-81
2021/12/28 05:50:06;;;;;;;63.17;23.80;;;5.70;99.90;;;;;;5021161;28;20057;-82
2021/12/28 05:52:32;;;;;;;46.22;21.88;;;5.60;99.90;;;;;;5037965;28;20048;-81
2021/12/28 05:54:57;;;;;;;42.67;18.17;;;5.60;99.90;;;;;;5021075;28;20045;-82
2021/12/28 05:57:24;;;;;;;29.15;17.65;;;5.60;99.90;;;;;;5021016;28;20060;-81
2021/12/28 05:59:50;;;;;;;27.42;16.67;;;5.60;99.90;;;;;;5021100;28;20144;-82
2021/12/28 06:02:15;;;;;;;55.75;21.50;;;5.60;99.90;;;;;;5021875;28;20103;-81
2021/12/28 06:04:41;;;;;;;32.15;15.45;;;5.60;99.90;;;;;;5020595;28;20256;-82
2021/12/28 06:07:07;;;;;;;36.90;18.45;;;5.60;99.90;;;;;;5039754;28;20045;-82
2021/12/28 06:09:32;;;;;;;35.88;16.45;;;5.60;99.90;;;;;;5039624;28;20044;-82
2021/12/28 06:11:58;;;;;;;28.08;16.13;;;5.60;99.90;;;;;;5032754;28;20041;-82
2021/12/28 06:14:23;;;;;;;31.00;16.90;;;5.60;99.90;;;;;;5039875;28;20068;-82
2021/12/28 06:16:49;;;;;;;26.95;16.95;;;5.60;99.90;;;;;;5024454;28;20049;-82
2021/12/28 06:19:14;;;;;;;22.90;14.43;;;5.60;99.90;;;;;;5025111;28;20520;-82
2021/12/28 06:21:40;;;;;;;29.23;17.80;;;5.60;99.90;;;;;;5025365;28;20876;-81
2021/12/28 06:24:07;;;;;;;29.55;16.58;;;5.70;99.90;;;;;;5021952;28;20056;-81
2021/12/28 06:26:34;;;;;;;36.08;15.25;;;5.70;99.90;;;;;;5041812;28;20048;-82
2021/12/28 06:29:01;;;;;;;45.65;19.13;;;5.70;99.90;;;;;;5041839;28;20057;-82
2021/12/28 06:31:28;;;;;;;32.35;18.17;;;5.60;99.90;;;;;;5042483;28;20059;-81
2021/12/28 06:33:59;;;;;;;34.63;18.48;;;5.60;99.90;;;;;;5042107;28;20195;-82
2021/12/28 06:36:25;;;;;;;25.40;15.73;;;5.60;99.90;;;;;;5043159;28;20484;-82
2021/12/28 06:38:51;;;;;;;25.10;17.08;;;5.60;99.90;;;;;;5042621;28;20045;-82
2021/12/28 06:41:17;;;;;;;30.58;16.20;;;5.60;99.90;;;;;;5042579;28;20045;-82
2021/12/28 06:43:43;;;;;;;39.80;20.52;;;5.70;99.90;;;;;;5042865;28;20111;-82
2021/12/28 06:46:11;;;;;;;33.83;16.13;;;5.70;99.90;;;;;;5042939;28;20053;-82
2021/12/28 06:48:37;;;;;;;31.38;18.35;;;5.70;99.90;;;;;;5039595;28;20772;-82
2021/12/28 06:51:05;;;;;;;31.50;16.63;;;5.70;99.90;;;;;;5023995;28;20060;-83
2021/12/28 06:53:30;;;;;;;26.88;16.27;;;5.70;99.90;;;;;;5023993;28;20056;-83
2021/12/28 06:55:56;;;;;;;24.30;15.38;;;5.70;99.90;;;;;;5040933;28;20836;-82
2021/12/28 06:58:21;;;;;;;23.70;15.95;;;5.70;99.90;;;;;;5023622;28;20045;-82
2021/12/28 07:00:47;;;;;;;24.20;16.55;;;5.70;99.90;;;;;;5023853;28;20059;-82
2021/12/28 07:03:12;;;;;;;24.50;15.85;;;5.70;99.90;;;;;;5023030;28;20060;-83
2021/12/28 07:05:38;;;;;;;23.48;15.63;;;5.70;99.90;;;;;;5041934;28;20084;-82
2021/12/28 07:08:04;;;;;;;25.30;14.90;;;5.70;99.90;;;;;;5041158;28;20056;-81
2021/12/28 07:10:30;;;;;;;25.10;15.82;;;5.80;99.90;;;;;;5041132;28;20795;-82
2021/12/28 07:12:55;;;;;;;23.23;15.52;;;5.80;99.90;;;;;;5041618;28;20050;-82
2021/12/28 07:15:22;;;;;;;22.50;14.68;;;5.80;99.90;;;;;;5022533;28;20479;-82
2021/12/28 07:17:48;;;;;;;23.92;14.73;;;5.80;99.90;;;;;;5023772;28;20084;-83
2021/12/28 07:20:15;;;;;;;24.48;15.93;;;5.80;99.90;;;;;;5022786;28;20533;-82
2021/12/28 07:22:41;;;;;;;20.95;13.80;;;5.80;99.90;;;;;;5040498;28;20049;-82
2021/12/28 07:25:08;;;;;;;24.95;15.13;;;5.80;99.90;;;;;;5022337;28;20732;-82
2021/12/28 07:27:34;;;;;;;23.90;14.45;;;5.80;99.90;;;;;;5022733;28;20052;-83
2021/12/28 07:29:59;;;;;;;20.55;14.07;;;5.90;99.90;;;;;;5015059;28;20052;-82
2021/12/28 07:32:25;;;;;;;22.75;12.93;;;5.90;99.90;;;;;;5039882;28;20518;-82
2021/12/28 07:34:50;;;;;;;19.63;13.20;;;5.90;99.90;;;;;;5040297;28;20068;-82
2021/12/28 07:37:16;;;;;;;21.58;12.23;;;5.90;99.90;;;;;;5039304;28;20060;-82
2021/12/28 07:39:42;;;;;;;19.35;12.95;;;5.90;99.90;;;;;;5040015;28;20053;-82
2021/12/28 07:42:08;;;;;;;18.08;12.82;;;5.90;99.90;;;;;;5020510;28;20561;-82
2021/12/28 07:44:35;;;;;;;19.88;12.10;;;5.90;99.90;;;;;;5020407;28;20135;-83
2021/12/28 07:47:02;;;;;;;19.10;12.63;;;5.90;99.90;;;;;;5021688;28;20052;-83
2021/12/28 07:49:28;;;;;;;22.52;12.88;;;5.90;99.90;;;;;;5021532;28;20500;-82
2021/12/28 07:51:53;;;;;;;19.60;12.00;;;5.90;99.90;;;;;;5038443;28;20048;-83
2021/12/28 07:54:19;;;;;;;16.58;11.77;;;5.90;99.90;;;;;;5021769;28;20055;-83
2021/12/28 07:56:44;;;;;;;20.95;13.32;;;5.90;99.90;;;;;;5039642;28;20877;-84
2021/12/28 07:59:10;;;;;;;16.52;10.85;;;5.90;99.90;;;;;;5020697;28;20049;-83
2021/12/28 08:01:36;;;;;;;14.88;10.25;;;5.90;99.90;;;;;;5038581;28;20084;-82
2021/12/28 08:04:02;;;;;;;13.93;10.05;;;5.90;99.90;;;;;;5020583;28;20048;-81
2021/12/28 08:06:28;;;;;;;15.10;10.48;;;5.90;99.90;;;;;;5019070;28;20040;-83
2021/12/28 08:08:53;;;;;;;14.55;10.82;;;5.90;99.90;;;;;;5016047;28;20076;-81
2021/12/28 08:11:19;;;;;;;14.68;10.18;;;5.90;99.90;;;;;;5037526;28;20094;-82
2021/12/28 08:13:45;;;;;;;17.05;10.60;;;5.90;99.90;;;;;;5019781;28;20040;-83
2021/12/28 08:16:10;;;;;;;13.30;9.77;;;5.90;99.90;;;;;;5038416;28;20170;-83
2021/12/28 08:18:36;;;;;;;13.57;9.15;;;5.90;99.90;;;;;;5019003;28;20827;-82
2021/12/28 08:21:01;;;;;;;16.90;9.27;;;5.90;99.90;;;;;;5037168;28;20077;-81
2021/12/28 08:23:27;;;;;;;11.93;8.50;;;5.90;99.90;;;;;;5037605;28;20049;-81
2021/12/28 08:25:54;;;;;;;13.25;8.73;;;6.90;99.90;;;;;;5019677;28;20072;-82
2021/12/28 08:28:19;;;;;;;11.85;8.38;;;6.00;99.90;;;;;;5038501;28;21569;-81
2021/12/28 08:30:45;;;;;;;24.80;8.80;;;6.00;99.90;;;;;;5038145;28;20422;-81
2021/12/28 08:33:11;;;;;;;13.90;8.85;;;6.00;99.90;;;;;;5019351;28;20041;-82
2021/12/28 08:35:39;;;;;;;15.75;8.80;;;6.00;99.90;;;;;;5019343;28;20041;-81
2021/12/28 08:38:06;;;;;;;13.85;8.05;;;6.00;99.90;;;;;;5019572;28;20075;-81
2021/12/28 08:40:32;;;;;;;19.88;9.15;;;6.10;99.90;;;;;;5015367;28;20049;-81
2021/12/28 08:42:58;;;;;;;11.15;7.90;;;6.10;99.90;;;;;;5036011;28;20114;-82
2021/12/28 08:45:23;;;;;;;16.98;8.30;;;6.10;99.90;;;;;;5017149;28;20095;-82
2021/12/28 08:47:50;;;;;;;11.95;7.68;;;6.10;99.90;;;;;;5018553;28;20037;-83
2021/12/28 08:50:17;;;;;;;15.63;7.72;;;6.10;99.90;;;;;;5037203;28;20127;-81
2021/12/28 08:52:43;;;;;;;10.57;8.10;;;6.10;99.90;;;;;;5017931;28;20071;-82
2021/12/28 08:55:09;;;;;;;13.00;7.63;;;6.20;99.90;;;;;;5018010;28;20151;-82
2021/12/28 08:57:36;;;;;;;10.65;6.38;;;6.20;99.90;;;;;;5020143;28;20159;-81
2021/12/28 09:00:05;;;;;;;10.40;7.35;;;6.30;99.90;;;;;;5020282;28;20057;-82
2021/12/28 09:02:31;;;;;;;15.20;7.68;;;6.30;99.90;;;;;;5016840;28;20144;-81
2021/12/28 09:04:56;;;;;;;16.35;8.18;;;6.30;99.90;;;;;;5037796;28;20817;-80
2021/12/28 09:07:23;;;;;;;12.00;6.80;;;6.30;99.90;;;;;;5018016;28;20055;-77
2021/12/28 09:09:49;;;;;;;10.55;6.43;;;6.30;99.90;;;;;;5018480;28;20139;-79
2021/12/28 09:12:15;;;;;;;12.60;6.93;;;6.30;99.90;;;;;;5019858;28;20144;-78
2021/12/28 09:14:41;;;;;;;13.70;8.98;;;6.30;99.90;;;;;;5037368;28;20052;-78
2021/12/28 09:17:07;;;;;;;12.68;7.45;;;6.30;99.90;;;;;;5037696;28;20044;-78
2021/12/28 09:19:32;;;;;;;13.32;7.63;;;6.40;99.90;;;;;;5020111;28;20587;-78
2021/12/28 09:21:59;;;;;;;12.00;6.47;;;6.40;99.90;;;;;;5019695;28;20056;-78
2021/12/28 09:24:25;;;;;;;13.93;6.95;;;6.50;99.90;;;;;;5035965;28;20055;-77
2021/12/28 09:26:51;;;;;;;13.43;6.47;;;6.50;99.90;;;;;;5038177;28;20045;-78
2021/12/28 09:29:17;;;;;;;16.38;9.60;;;6.50;99.90;;;;;;5037466;28;20068;-77
2021/12/28 09:31:43;;;;;;;16.20;8.38;;;6.60;99.90;;;;;;5038254;28;20148;-76
2021/12/28 09:34:08;;;;;;;11.82;7.30;;;6.70;99.90;;;;;;5019002;28;20091;-76
2021/12/28 09:36:34;;;;;;;8.38;6.38;;;6.70;99.90;;;;;;5036720;28;20048;-78
2021/12/28 09:39:01;;;;;;;13.75;6.68;;;6.70;99.90;;;;;;5038041;28;20060;-79
2021/12/28 09:41:26;;;;;;;11.70;6.40;;;6.70;99.90;;;;;;5014873;28;20738;-79
2021/12/28 09:43:52;;;;;;;9.48;6.25;;;6.80;99.90;;;;;;5013603;28;20046;-81
2021/12/28 09:46:18;;;;;;;17.45;8.05;;;6.80;99.90;;;;;;5012636;28;20057;-80
2021/12/28 09:48:43;;;;;;;8.85;5.97;;;6.90;99.90;;;;;;5015431;28;21050;-81
2021/12/28 09:51:09;;;;;;;12.55;7.22;;;6.90;99.90;;;;;;5014037;28;21588;-81
2021/12/28 09:53:37;;;;;;;12.23;6.88;;;7.00;99.90;;;;;;5019122;28;20151;-81
2021/12/28 09:56:04;;;;;;;12.90;7.55;;;6.90;99.90;;;;;;5023984;28;20068;-82
2021/12/28 09:58:33;;;;;;;10.38;7.20;;;7.00;99.90;;;;;;5023654;28;20127;-82
2021/12/28 10:00:59;;;;;;;14.80;7.00;;;7.00;99.90;;;;;;5023802;28;20045;-82
2021/12/28 10:03:25;;;;;;;10.73;5.43;;;7.00;99.90;;;;;;5022062;28;20954;-83
2021/12/28 10:05:50;;;;;;;16.30;6.78;;;6.90;99.90;;;;;;5023150;28;20079;-83
2021/12/28 10:08:16;;;;;;;8.13;5.78;;;6.90;99.90;;;;;;5020334;28;20046;-83
2021/12/28 10:10:44;;;;;;;10.60;5.47;;;6.90;99.90;;;;;;5020373;28;20059;-83
2021/12/28 10:13:19;;;;;;;9.50;5.65;;;6.90;99.90;;;;;;5019809;28;20139;-83
2021/12/28 10:15:46;;;;;;;8.05;5.80;;;6.90;99.90;;;;;;5018511;28;20120;-83
2021/12/28 10:18:13;;;;;;;11.57;6.20;;;6.90;99.90;;;;;;5019980;28;20873;-83
2021/12/28 10:20:51;;;;;;;10.82;6.32;;;7.00;99.90;;;;;;5015964;28;20096;-83
2021/12/28 10:23:21;;;;;;;11.20;7.07;;;6.90;99.90;;;;;;5018586;28;20053;-83
2021/12/28 10:25:51;;;;;;;14.20;5.18;;;7.00;99.90;;;;;;5014695;28;20663;-82
2021/12/28 10:28:23;;;;;;;12.85;5.82;;;7.00;99.90;;;;;;5017123;28;20107;-83
2021/12/28 10:30:56;;;;;;;9.60;5.43;;;7.00;99.90;;;;;;5023339;28;20083;-83
2021/12/28 10:33:24;;;;;;;12.45;4.97;;;7.00;99.90;;;;;;5019227;28;20053;-83
2021/12/28 10:35:56;;;;;;;9.63;4.68;;;7.00;99.90;;;;;;5022272;28;20853;-82
2021/12/28 10:38:28;;;;;;;9.95;5.35;;;7.00;99.90;;;;;;5026217;28;20076;-82
2021/12/28 10:40:58;;;;;;;15.85;5.80;;;7.00;99.90;;;;;;5026053;28;20214;-83
2021/12/28 10:43:33;;;;;;;7.85;5.88;;;7.00;99.90;;;;;;5021598;28;20232;-83
2021/12/28 10:46:05;;;;;;;6.70;5.50;;;7.10;99.90;;;;;;5020768;28;20041;-82
2021/12/28 10:48:41;;;;;;;17.05;5.82;;;7.10;99.90;;;;;;5016911;28;20054;-84
2021/12/28 10:51:12;;;;;;;10.55;5.75;;;7.10;99.90;;;;;;5014551;28;20053;-84
2021/12/28 10:53:59;;;;;;;8.13;5.13;;;7.10;99.90;;;;;;5017523;28;20129;-83
2021/12/28 10:56:31;;;;;;;14.82;6.20;;;7.10;99.90;;;;;;5017773;28;20807;-81
2021/12/28 10:58:57;;;;;;;11.68;5.70;;;7.10;99.90;;;;;;5017271;28;20060;-86
2021/12/28 11:01:25;;;;;;;14.55;5.97;;;7.10;99.90;;;;;;5015884;28;20253;-82
2021/12/28 11:03:54;;;;;;;16.15;6.75;;;7.10;99.90;;;;;;5032399;28;20175;-80
2021/12/28 11:06:27;;;;;;;11.07;6.63;;;7.20;99.90;;;;;;5017355;28;20056;-82
2021/12/28 11:08:55;;;;;;;15.33;7.20;;;7.20;99.90;;;;;;5033633;28;20049;-77
2021/12/28 11:11:24;;;;;;;10.93;6.00;;;7.20;99.90;;;;;;5032194;28;20071;-79
2021/12/28 11:13:57;;;;;;;12.25;6.05;;;7.20;99.90;;;;;;5016359;28;20752;-79
2021/12/28 11:16:26;;;;;;;13.77;6.28;;;7.20;99.90;;;;;;5034137;28;20072;-78
2021/12/28 11:18:53;;;;;;;10.40;7.28;;;7.20;99.90;;;;;;5015641;28;20045;-78
2021/12/28 11:21:28;;;;;;;10.88;6.85;;;7.30;99.90;;;;;;5032130;28;20057;-79
2021/12/28 11:24:05;;;;;;;9.15;6.43;;;7.20;99.90;;;;;;5017163;28;20044;-78
2021/12/28 11:26:37;;;;;;;15.32;6.75;;;7.20;99.90;;;;;;5016204;28;20041;-78
2021/12/28 11:29:11;;;;;;;15.00;7.13;;;7.30;99.90;;;;;;5034775;28;20084;-78
2021/12/28 11:31:47;;;;;;;13.13;6.60;;;7.30;99.90;;;;;;5016191;28;20369;-79
2021/12/28 11:34:21;;;;;;;11.23;6.63;;;7.30;99.90;;;;;;5015502;28;20044;-77
2021/12/28 11:36:54;;;;;;;10.52;6.60;;;7.30;99.90;;;;;;5015900;28;20447;-78
2021/12/28 11:39:27;;;;;;;9.48;6.13;;;7.30;99.90;;;;;;5036553;28;20052;-78
2021/12/28 11:41:55;;;;;;;12.02;7.32;;;7.30;99.90;;;;;;4672120;28;10000505;-78
2021/12/28 11:44:22;;;;;;;10.70;6.18;;;7.30;99.90;;;;;;5018029;28;20044;-81
2021/12/28 11:46:49;;;;;;;8.55;6.03;;;7.30;99.90;;;;;;5017364;28;20055;-78
2021/12/28 11:49:15;;;;;;;13.23;6.35;;;7.30;99.90;;;;;;5014624;28;20135;-80
2021/12/28 11:51:48;;;;;;;15.00;7.30;;;7.40;99.90;;;;;;5033490;28;20041;-79
2021/12/28 11:54:16;;;;;;;12.43;8.32;;;7.40;99.90;;;;;;5033513;28;20425;-80
2021/12/28 11:56:45;;;;;;;9.90;7.15;;;7.40;99.90;;;;;;5010959;28;20688;-79
2021/12/28 11:59:22;;;;;;;12.65;7.45;;;7.40;99.90;;;;;;5016619;28;20041;-78
2021/12/28 12:01:50;;;;;;;9.63;6.38;;;7.50;99.90;;;;;;5034892;28;20135;-78
2021/12/28 12:04:34;;;;;;;13.63;6.65;;;7.50;99.90;;;;;;5013199;28;20303;-78
2021/12/28 12:07:13;;;;;;;10.45;6.55;;;7.50;99.90;;;;;;5015110;28;20899;-78
2021/12/28 12:09:54;;;;;;;18.02;7.55;;;7.50;99.90;;;;;;5015181;28;20096;-78
2021/12/28 12:12:20;;;;;;;15.15;7.55;;;7.50;99.90;;;;;;5015732;28;20044;-78
2021/12/28 12:14:52;;;;;;;11.10;6.78;;;7.50;99.90;;;;;;5016897;28;20049;-79
2021/12/28 12:17:45;;;;;;;16.23;8.15;;;7.60;99.90;;;;;;5006947;28;20056;-78
2021/12/28 12:20:17;;;;;;;13.05;6.65;;;7.60;99.90;;;;;;5034704;28;20070;-78
2021/12/28 12:23:03;;;;;;;7.22;6.20;;;7.50;99.90;;;;;;5015699;28;20404;-79
2021/12/28 12:25:42;;;;;;;17.48;8.05;;;7.60;99.90;;;;;;5015982;28;20106;-79
2021/12/28 12:28:09;;;;;;;9.75;6.57;;;7.60;99.90;;;;;;5034504;28;20068;-78
2021/12/28 12:30:45;;;;;;;11.95;6.72;;;7.60;99.90;;;;;;5016320;28;20033;-78
2021/12/28 12:33:12;;;;;;;8.07;6.25;;;7.70;99.90;;;;;;5016985;28;20057;-80
2021/12/28 12:35:58;;;;;;;6.95;6.00;;;7.70;99.90;;;;;;5017881;28;20111;-79
2021/12/28 12:38:32;;;;;;;10.65;7.10;;;7.80;99.90;;;;;;5034090;28;20700;-79
2021/12/28 12:41:04;;;;;;;11.70;6.25;;;7.80;99.90;;;;;;5014230;28;20052;-78
2021/12/28 12:43:36;;;;;;;10.97;6.40;;;7.80;99.90;;;;;;5017435;28;20056;-78